createdAt,value
2017-08-02T00:09:03.613Z,1010.08
2017-08-02T00:19:03.581Z,1010.03
2017-08-02T00:29:03.640Z,1010.04
2017-08-02T00:39:03.553Z,1010.04
2017-08-02T00:49:03.584Z,1009.83
2017-08-02T00:59:03.635Z,1009.77
2017-08-02T01:09:03.588Z,1009.69
2017-08-02T01:19:03.643Z,1009.74
2017-08-02T01:29:03.604Z,1009.91
2017-08-02T01:39:03.566Z,1009.89
2017-08-02T01:49:03.658Z,1009.91
2017-08-02T01:59:03.606Z,1009.97
2017-08-02T02:09:03.677Z,1009.96
2017-08-02T02:19:03.633Z,1010
2017-08-02T02:29:03.594Z,1009.71
2017-08-02T02:39:03.648Z,1009.73
2017-08-02T02:49:03.597Z,1009.7
2017-08-02T02:59:03.683Z,1009.75
2017-08-02T03:09:03.636Z,1009.94
2017-08-02T03:19:03.594Z,1010.02
2017-08-02T03:29:03.680Z,1009.69
2017-08-02T03:39:03.620Z,1009.86
2017-08-02T03:49:03.594Z,1009.71
2017-08-02T03:59:03.639Z,1009.66
2017-08-02T04:09:03.594Z,1009.7
2017-08-02T04:19:03.667Z,1009.75
2017-08-02T04:29:03.623Z,1009.8
2017-08-02T04:39:03.549Z,1009.86
2017-08-02T04:49:03.655Z,1009.78
2017-08-02T04:59:03.622Z,1009.76
2017-08-02T05:09:03.579Z,1009.8
2017-08-02T05:19:03.626Z,1009.61
2017-08-02T05:29:03.616Z,1009.77
2017-08-02T05:39:03.664Z,1009.93
2017-08-02T05:49:03.629Z,1010.01
2017-08-02T05:59:03.594Z,1010.11
2017-08-02T06:09:03.645Z,1010.17
2017-08-02T06:19:03.613Z,1010.27
2017-08-02T06:29:03.569Z,1010.17
2017-08-02T06:39:03.563Z,1010.07
2017-08-02T06:49:03.559Z,1010.08
2017-08-02T06:59:03.559Z,1010.05
2017-08-02T07:09:03.622Z,1010.01
2017-08-02T07:19:03.569Z,1009.91
2017-08-02T07:29:03.568Z,1009.9
2017-08-02T07:39:03.587Z,1010.12
2017-08-02T07:49:03.575Z,1010.05
2017-08-02T07:59:03.575Z,1010.03
2017-08-02T08:09:03.581Z,1009.84
2017-08-02T08:19:03.582Z,1009.82
2017-08-02T08:29:03.572Z,1009.88
2017-08-02T08:39:03.587Z,1009.99
2017-08-02T08:49:03.574Z,1010.01
2017-08-02T08:59:03.593Z,1010.24
2017-08-02T09:09:03.601Z,1010.26
2017-08-02T09:19:03.594Z,1010.24
2017-08-02T09:29:03.606Z,1010.15
2017-08-02T09:39:03.600Z,1010.12
2017-08-02T09:49:03.613Z,1010.26
2017-08-02T09:59:03.604Z,1010.42
2017-08-02T10:09:03.619Z,1010.45
2017-08-02T10:19:03.609Z,1010.53
2017-08-02T10:29:03.628Z,1010.54
2017-08-02T10:39:03.609Z,1010.45
2017-08-02T10:49:03.612Z,1010.62
2017-08-02T10:59:03.616Z,1010.64
2017-08-02T11:09:03.619Z,1010.68
2017-08-02T11:19:03.619Z,1010.61
2017-08-02T11:29:03.622Z,1010.7
2017-08-02T11:39:03.632Z,1010.64
2017-08-02T11:49:03.652Z,1010.55
2017-08-02T11:59:03.642Z,1010.63
2017-08-02T12:09:03.651Z,1010.52
2017-08-02T12:19:03.750Z,1010.32
2017-08-02T12:29:03.680Z,1010.46
2017-08-02T12:39:03.652Z,1010.4
2017-08-02T12:49:03.728Z,1010.3
2017-08-02T12:59:03.709Z,1010.21
2017-08-02T13:09:03.741Z,1010.12
2017-08-02T13:19:03.715Z,1010.08
2017-08-02T13:29:03.680Z,1009.95
2017-08-02T13:39:03.721Z,1009.87
2017-08-02T13:49:03.683Z,1009.69
2017-08-02T13:59:03.740Z,1009.46
2017-08-02T14:09:03.709Z,1009.38
2017-08-02T14:19:03.772Z,1009.46
2017-08-02T14:29:03.766Z,1009.46
2017-08-02T14:39:03.718Z,1009.33
2017-08-02T14:49:03.756Z,1009.3
2017-08-02T14:59:03.731Z,1009.15
2017-08-02T15:09:03.788Z,1009.12
2017-08-02T15:19:03.753Z,1009.02
2017-08-02T15:29:03.695Z,1008.88
2017-08-02T15:39:03.765Z,1008.81
2017-08-02T15:49:03.740Z,1008.64
2017-08-02T15:59:03.804Z,1008.59
2017-08-02T16:09:03.740Z,1008.59
2017-08-02T16:19:03.715Z,1008.67
2017-08-02T16:29:03.817Z,1008.63
2017-08-02T16:39:03.741Z,1008.77
2017-08-02T16:49:03.794Z,1008.82
2017-08-02T16:59:03.696Z,1008.93
2017-08-02T17:09:03.701Z,1008.88
2017-08-02T17:19:03.705Z,1008.78
2017-08-02T17:29:03.727Z,1008.9
2017-08-02T17:39:03.682Z,1008.95
2017-08-02T17:49:03.686Z,1008.69
2017-08-02T17:59:03.718Z,1008.6
2017-08-02T18:09:03.724Z,1008.71
2017-08-02T18:19:03.724Z,1008.82
2017-08-02T18:29:04.644Z,1008.58
2017-08-02T18:39:04.081Z,1008.56
2017-08-02T18:49:03.768Z,1008.63
2017-08-02T18:59:03.721Z,1008.68
2017-08-02T19:09:03.702Z,1008.58
2017-08-02T19:19:03.721Z,1008.56
2017-08-02T19:29:03.708Z,1008.65
2017-08-02T19:39:03.759Z,1008.66
2017-08-02T19:49:03.842Z,1008.64
2017-08-02T19:59:03.785Z,1008.56
2017-08-02T20:09:03.756Z,1008.83
2017-08-02T20:19:03.824Z,1008.76
2017-08-02T20:29:03.747Z,1008.56
2017-08-02T20:39:03.840Z,1008.65
2017-08-02T20:49:03.809Z,1008.71
2017-08-02T20:59:03.743Z,1008.74
2017-08-02T21:09:03.814Z,1008.49
2017-08-02T21:19:03.771Z,1008.45
2017-08-02T21:29:03.836Z,1008.59
2017-08-02T21:39:03.792Z,1008.49
2017-08-02T21:49:03.754Z,1008.6
2017-08-02T21:59:03.808Z,1008.5
2017-08-02T22:09:03.794Z,1008.5
2017-08-02T22:19:03.741Z,1008.13
2017-08-02T22:29:03.811Z,1007.83
2017-08-02T22:39:06.134Z,1007.76
2017-08-02T22:49:03.867Z,1007.32
2017-08-02T22:59:03.797Z,1007.28
2017-08-02T23:09:03.749Z,1007.32
2017-08-02T23:19:03.819Z,1007.22
2017-08-02T23:29:03.781Z,1007.42
2017-08-02T23:39:03.833Z,1007.44
2017-08-02T23:49:03.782Z,1007.25
2017-08-02T23:59:03.839Z,1006.84
